Time;durP1;ratioP1;P1;durP2;ratioP2;P2;SDS_P1;SDS_P2;PMS_P1;PMS_P2;Temp;Humidity;BMP_temperature;BMP_pressure;BME280_temperature;BME280_humidity;BME280_pressure;Samples;Min_cycle;Max_cycle;Signal;HPM_P1;HPM_P2
2023/03/30 00:01:34;;;;;;;5.07;3.28;;;;;;;12.41;42.28;100035.47;4418813;32;35110;-60
2023/03/30 00:04:02;;;;;;;4.00;2.40;;;;;;;12.14;42.90;100037.63;4402739;32;33446;-60
2023/03/30 00:06:29;;;;;;;5.05;3.67;;;;;;;12.28;42.70;100032.03;4414531;32;34807;-60
2023/03/30 00:08:58;;;;;;;3.30;2.12;;;;;;;12.41;42.27;100034.63;4414084;32;33708;-60
2023/03/30 00:11:26;;;;;;;4.53;3.12;;;;;;;12.48;42.22;100025.94;4417950;32;34951;-62
2023/03/30 00:13:54;;;;;;;4.95;3.22;;;;;;;12.53;42.28;100022.91;4418845;32;34275;-63
2023/03/30 00:16:21;;;;;;;8.60;3.15;;;;;;;12.31;42.67;100021.06;4417123;32;33522;-61
2023/03/30 00:18:49;;;;;;;3.65;2.65;;;;;;;12.53;42.16;100014.88;4417631;32;32624;-60
2023/03/30 00:21:19;;;;;;;4.97;3.12;;;;;;;12.63;41.76;100015.00;4413332;32;35154;-60
2023/03/30 00:23:47;;;;;;;6.75;3.95;;;;;;;12.60;41.77;100016.09;4419444;32;33062;-60
2023/03/30 00:26:16;;;;;;;5.90;3.72;;;;;;;12.45;42.37;100014.59;4417830;32;34696;-64
2023/03/30 00:28:44;;;;;;;5.32;3.08;;;;;;;12.57;42.34;100016.31;4420816;32;33754;-63
2023/03/30 00:31:12;;;;;;;5.07;3.05;;;;;;;12.69;41.93;100011.81;4420594;32;33702;-62
2023/03/30 00:33:42;;;;;;;6.25;3.10;;;;;;;12.55;42.15;100015.59;4416952;32;33626;-60
2023/03/30 00:36:14;;;;;;;6.57;2.67;;;;;;;12.77;41.61;100007.53;4419885;32;33793;-60
2023/03/30 00:38:44;;;;;;;2.72;2.47;;;;;;;12.76;41.85;100013.87;4418353;32;34279;-62
2023/03/30 00:41:12;;;;;;;5.15;2.90;;;;;;;12.74;42.00;100012.31;4416747;32;33842;-61
2023/03/30 00:44:00;;;;;;;4.30;2.67;;;;;;;12.72;42.08;99999.00;4416727;32;33837;-60
2023/03/30 00:46:29;;;;;;;3.67;2.83;;;;;;;12.67;42.15;99998.50;4421108;32;33780;-63
2023/03/30 00:49:02;;;;;;;3.90;2.35;;;;;;;12.65;41.79;99992.44;4421857;32;34126;-60
2023/03/30 00:51:36;;;;;;;6.78;3.42;;;;;;;12.27;42.70;100003.50;4419162;32;34072;-60
2023/03/30 00:54:08;;;;;;;6.62;3.78;;;;;;;12.08;43.23;99996.00;4417591;32;33367;-61
2023/03/30 00:56:36;;;;;;;5.40;3.78;;;;;;;11.96;43.78;99991.56;4418928;32;34861;-60
2023/03/30 00:59:04;;;;;;;5.43;2.85;;;;;;;12.34;42.76;99996.66;4418657;32;33899;-61
2023/03/30 01:01:37;;;;;;;6.45;4.12;;;;;;;12.38;43.07;99994.59;4417488;32;34995;-60
2023/03/30 01:04:07;;;;;;;3.78;2.47;;;;;;;12.45;43.06;99985.06;4417367;32;32295;-59
2023/03/30 01:06:35;;;;;;;5.47;3.60;;;;;;;12.47;42.96;99986.66;4419320;32;34890;-60
2023/03/30 01:09:04;;;;;;;7.10;3.97;;;;;;;12.48;42.87;99963.34;4417902;32;34823;-60
2023/03/30 01:11:32;;;;;;;5.60;3.50;;;;;;;12.26;43.43;99961.50;4417803;32;34970;-59
2023/03/30 01:14:02;;;;;;;6.93;4.10;;;;;;;12.38;43.15;99970.44;4419009;32;33536;-60
2023/03/30 01:16:39;;;;;;;7.68;4.57;;;;;;;12.47;42.80;99956.28;4417351;32;33021;-60
2023/03/30 01:19:31;;;;;;;5.00;3.00;;;;;;;12.33;43.02;99944.81;4416419;32;32295;-60
2023/03/30 01:22:11;;;;;;;5.05;3.20;;;;;;;12.24;43.47;99950.91;4418335;32;35017;-60
2023/03/30 01:25:14;;;;;;;2.97;2.55;;;;;;;12.42;42.95;99953.09;4417385;32;35069;-60
2023/03/30 01:28:00;;;;;;;6.20;3.80;;;;;;;12.11;43.60;99950.16;4411970;32;33845;-60
2023/03/30 01:30:56;;;;;;;4.03;2.45;;;;;;;12.25;43.38;99939.19;4417945;32;33660;-60
2023/03/30 01:34:02;;;;;;;5.20;2.80;;;;;;;12.38;43.01;99944.44;4416968;32;35326;-61
2023/03/30 01:36:30;;;;;;;6.65;3.80;;;;;;;12.43;42.97;99944.09;4405509;32;34828;-59
2023/03/30 01:39:10;;;;;;;6.43;2.58;;;;;;;12.35;43.19;99936.62;4412664;32;33756;-60
2023/03/30 01:42:00;;;;;;;5.53;3.00;;;;;;;12.29;43.36;99935.28;4409996;32;34024;-60
2023/03/30 01:44:33;;;;;;;7.22;3.70;;;;;;;12.24;43.47;99934.81;4417721;32;34875;-62
2023/03/30 01:47:15;;;;;;;10.23;5.65;;;;;;;12.01;43.70;99933.06;4417011;32;33610;-61
2023/03/30 01:49:46;;;;;;;5.32;4.05;;;;;;;12.23;43.23;99927.72;4422091;32;32647;-61
2023/03/30 01:52:23;;;;;;;9.77;4.28;;;;;;;12.23;43.24;99935.78;4420365;32;33556;-59
2023/03/30 01:54:57;;;;;;;10.00;4.30;;;;;;;12.22;43.41;99935.88;4416892;32;34244;-60
2023/03/30 01:57:41;;;;;;;7.93;3.60;;;;;;;12.11;43.73;99932.22;4415972;32;32354;-59
2023/03/30 02:00:13;;;;;;;5.40;3.25;;;;;;;12.26;43.25;99934.66;4415213;32;34969;-60
2023/03/30 02:02:45;;;;;;;3.58;2.55;;;;;;;12.25;43.31;99924.91;4422266;32;35013;-60
2023/03/30 02:05:16;;;;;;;4.57;3.37;;;;;;;11.75;44.58;99927.84;4415680;32;34415;-60
2023/03/30 02:07:54;;;;;;;4.53;3.05;;;;;;;11.21;46.00;99930.22;4413705;32;33597;-59
2023/03/30 02:10:25;;;;;;;6.03;4.43;;;;;;;11.72;44.27;99922.72;4418214;32;34957;-60
2023/03/30 02:12:56;;;;;;;4.90;3.78;;;;;;;11.60;44.57;99924.50;4417886;32;33998;-60
2023/03/30 02:15:27;;;;;;;7.75;4.43;;;;;;;11.80;43.88;99922.97;4421062;32;35202;-59
2023/03/30 02:17:55;;;;;;;7.65;3.53;;;;;;;12.01;43.72;99916.97;4417954;32;33579;-60
2023/03/30 02:20:23;;;;;;;10.02;5.55;;;;;;;11.96;43.57;99913.78;4416171;32;33426;-60
2023/03/30 02:22:50;;;;;;;3.75;2.33;;;;;;;11.92;43.51;99906.97;4418710;32;34562;-60
2023/03/30 02:25:18;;;;;;;3.90;3.05;;;;;;;11.96;43.55;99900.38;4418453;32;34886;-60
2023/03/30 02:27:46;;;;;;;7.07;3.25;;;;;;;12.07;43.33;99898.56;4415905;32;33545;-60
2023/03/30 02:30:14;;;;;;;3.85;2.65;;;;;;;12.03;43.61;99902.44;4417330;32;33874;-59
2023/03/30 02:32:45;;;;;;;4.72;3.00;;;;;;;12.16;43.75;99907.69;4417346;32;32975;-60
2023/03/30 02:35:33;;;;;;;7.75;4.53;;;;;;;12.08;43.64;99902.94;4417563;32;33954;-59
2023/03/30 02:38:43;;;;;;;6.55;4.00;;;;;;;12.15;43.38;99902.47;4418674;32;34447;-60
2023/03/30 02:41:36;;;;;;;3.58;2.70;;;;;;;12.06;43.44;99914.78;4390373;32;34290;-59
2023/03/30 02:44:13;;;;;;;10.90;3.60;;;;;;;11.75;44.19;99910.88;4425831;32;34151;-60
2023/03/30 02:46:56;;;;;;;6.85;3.00;;;;;;;11.81;44.10;99910.41;4415462;32;34614;-60
2023/03/30 02:49:41;;;;;;;8.68;5.20;;;;;;;11.96;43.43;99897.69;4411767;32;33682;-60
2023/03/30 02:52:32;;;;;;;5.82;3.83;;;;;;;11.60;44.12;99907.56;4419030;32;34642;-62
2023/03/30 02:55:09;;;;;;;6.20;3.45;;;;;;;11.97;43.31;99900.25;4413910;32;33689;-60
2023/03/30 02:57:54;;;;;;;6.15;4.07;;;;;;;12.10;43.02;99905.50;4418283;32;33078;-61
2023/03/30 03:00:31;;;;;;;4.82;2.87;;;;;;;11.90;43.61;99904.38;4417817;32;34421;-60
2023/03/30 03:03:07;;;;;;;3.20;2.70;;;;;;;11.99;43.38;99914.41;4417326;32;33929;-60
2023/03/30 03:05:35;;;;;;;4.60;3.03;;;;;;;12.17;43.05;99911.25;4417187;32;35153;-62
2023/03/30 03:08:04;;;;;;;9.25;4.12;;;;;;;12.11;42.92;99909.91;4417111;32;34229;-59
2023/03/30 03:10:35;;;;;;;20.25;3.65;;;;;;;11.73;43.73;99908.34;4413091;32;33356;-60
2023/03/30 03:13:02;;;;;;;5.60;3.87;;;;;;;11.92;43.26;99901.59;4418159;32;34007;-60
2023/03/30 03:15:31;;;;;;;3.78;2.25;;;;;;;12.00;43.04;99912.56;4426550;32;34145;-60
2023/03/30 03:17:59;;;;;;;5.25;3.53;;;;;;;12.03;42.80;99905.12;4416878;32;34300;-60
2023/03/30 03:20:29;;;;;;;5.05;3.03;;;;;;;11.71;43.52;99920.16;4417421;32;33612;-59
2023/03/30 03:22:57;;;;;;;3.90;2.92;;;;;;;12.10;42.63;99917.09;4416338;32;32213;-60
2023/03/30 03:25:25;;;;;;;2.65;1.83;;;;;;;12.10;42.63;99922.47;4416686;32;33931;-60
2023/03/30 03:27:52;;;;;;;3.15;2.58;;;;;;;12.25;42.50;99916.87;4413319;32;33096;-60
2023/03/30 03:30:20;;;;;;;5.53;2.67;;;;;;;12.11;42.71;99912.59;4422517;32;33300;-60
2023/03/30 03:32:49;;;;;;;3.95;3.05;;;;;;;12.19;42.30;99915.50;4421015;32;34754;-60
2023/03/30 03:35:17;;;;;;;8.27;3.80;;;;;;;11.97;42.71;99919.00;4416683;32;33726;-63
2023/03/30 03:37:45;;;;;;;4.93;3.28;;;;;;;12.01;42.65;99927.72;4416845;32;33948;-60
2023/03/30 03:40:13;;;;;;;5.37;3.03;;;;;;;12.08;42.39;99923.56;4416284;32;33585;-60
2023/03/30 03:42:41;;;;;;;4.00;2.45;;;;;;;11.89;42.66;99930.34;4419240;32;35048;-60
2023/03/30 03:45:10;;;;;;;5.05;2.45;;;;;;;12.14;42.23;99927.59;4416264;32;34088;-61
2023/03/30 03:47:38;;;;;;;3.17;2.17;;;;;;;11.92;42.46;99923.91;4415518;32;34865;-60
2023/03/30 03:50:08;;;;;;;3.83;3.22;;;;;;;12.05;42.06;99919.28;4415347;32;34531;-60
2023/03/30 03:52:36;;;;;;;2.62;2.37;;;;;;;10.73;44.88;99917.63;4417953;32;32913;-62
2023/03/30 03:55:04;;;;;;;8.98;4.75;;;;;;;11.59;43.07;99911.25;4417492;32;32658;-62
2023/03/30 03:57:31;;;;;;;4.12;2.47;;;;;;;10.71;44.93;99907.00;4414939;32;35657;-61
2023/03/30 03:59:59;;;;;;;7.87;3.22;;;;;;;9.86;46.82;99905.91;4418622;32;33328;-61
2023/03/30 04:02:27;;;;;;;9.82;4.22;;;;;;;10.77;44.84;99902.19;4420022;32;33994;-61
2023/03/30 04:04:56;;;;;;;4.62;3.30;;;;;;;10.44;46.39;99906.34;4418567;32;35690;-66
2023/03/30 04:07:24;;;;;;;4.00;3.47;;;;;;;10.94;44.60;99899.12;4420910;32;33050;-61
2023/03/30 04:09:51;;;;;;;4.62;3.17;;;;;;;11.18;44.19;99889.28;4419486;32;33724;-60
2023/03/30 04:12:19;;;;;;;3.85;2.80;;;;;;;11.03;44.56;99890.41;4417161;32;33743;-63
2023/03/30 04:14:48;;;;;;;6.53;3.35;;;;;;;10.87;44.72;99884.47;4417758;32;34050;-59
2023/03/30 04:17:16;;;;;;;3.80;2.65;;;;;;;11.10;44.13;99875.56;4417233;32;35356;-60
2023/03/30 04:19:45;;;;;;;7.97;3.08;;;;;;;11.06;44.20;99870.56;4422128;32;33498;-63
2023/03/30 04:22:13;;;;;;;4.95;3.55;;;;;;;11.15;43.94;99885.97;4416251;32;33869;-61
2023/03/30 04:24:43;;;;;;;4.68;2.83;;;;;;;10.94;44.13;99885.72;4416052;32;35466;-60
2023/03/30 04:27:15;;;;;;;2.40;2.15;;;;;;;11.41;42.64;99889.34;4418440;32;34304;-60
2023/03/30 04:29:43;;;;;;;4.30;2.70;;;;;;;11.34;42.80;99891.66;4417368;32;32482;-64
2023/03/30 04:32:11;;;;;;;7.68;2.85;;;;;;;11.03;43.61;99898.44;4422237;32;34546;-61
2023/03/30 04:34:41;;;;;;;9.65;4.82;;;;;;;11.40;42.79;99896.53;4426487;32;34014;-62
2023/03/30 04:37:09;;;;;;;11.88;4.37;;;;;;;11.39;42.77;99899.31;4419007;32;34007;-61
2023/03/30 04:39:38;;;;;;;5.12;3.50;;;;;;;11.51;42.17;99887.69;4417941;32;35282;-61
2023/03/30 04:42:06;;;;;;;4.43;2.95;;;;;;;10.74;44.23;99884.53;4417887;32;32249;-60
2023/03/30 04:44:34;;;;;;;10.80;4.00;;;;;;;10.93;43.84;99874.16;4417678;32;34002;-63
2023/03/30 04:47:02;;;;;;;4.85;2.90;;;;;;;11.28;42.79;99876.03;4419708;32;34099;-61
2023/03/30 04:49:30;;;;;;;5.65;2.80;;;;;;;10.95;43.24;99874.06;4417167;32;32363;-60
2023/03/30 04:51:58;;;;;;;7.25;3.22;;;;;;;11.30;42.60;99874.09;4412485;32;33756;-60
2023/03/30 04:54:26;;;;;;;6.70;5.47;;;;;;;10.86;44.46;99867.56;4418555;32;34547;-60
2023/03/30 04:56:58;;;;;;;5.90;2.60;;;;;;;10.55;44.58;99865.41;4419860;32;34076;-60
2023/03/30 04:59:25;;;;;;;2.62;1.73;;;;;;;11.12;43.13;99864.75;4416761;32;33235;-62
2023/03/30 05:01:54;;;;;;;2.40;2.20;;;;;;;10.63;44.14;99857.69;4415734;32;33615;-62
2023/03/30 05:04:21;;;;;;;5.22;2.55;;;;;;;11.14;43.33;99865.50;4424442;32;33846;-61
2023/03/30 05:06:49;;;;;;;4.22;2.42;;;;;;;11.23;42.71;99861.25;4417823;32;35297;-65
2023/03/30 05:09:20;;;;;;;12.20;5.85;;;;;;;11.37;42.19;99872.66;4418496;32;34723;-62
2023/03/30 05:11:49;;;;;;;5.62;3.45;;;;;;;11.31;42.54;99870.44;4417342;32;33834;-64
2023/03/30 05:14:16;;;;;;;13.43;6.12;;;;;;;11.26;42.77;99869.06;4416723;32;33253;-61
2023/03/30 05:16:44;;;;;;;8.70;3.92;;;;;;;11.13;42.69;99867.31;4420131;32;34094;-60
2023/03/30 05:19:13;;;;;;;5.03;3.42;;;;;;;11.34;42.63;99864.84;4419103;32;33605;-62
2023/03/30 05:21:41;;;;;;;6.22;4.15;;;;;;;10.59;43.58;99866.91;4422982;32;34572;-63
2023/03/30 05:24:11;;;;;;;8.15;4.82;;;;;;;11.29;42.31;99867.00;4422796;32;33787;-62
2023/03/30 05:26:40;;;;;;;6.05;2.30;;;;;;;10.54;43.68;99869.91;4422665;32;33991;-61
2023/03/30 05:29:08;;;;;;;2.97;2.30;;;;;;;10.82;43.02;99873.25;4417527;32;33359;-62
2023/03/30 05:31:36;;;;;;;7.18;2.80;;;;;;;10.45;43.84;99868.75;4421457;32;34487;-62
2023/03/30 05:34:05;;;;;;;3.78;3.12;;;;;;;9.34;46.18;99872.06;4416530;32;32952;-61
2023/03/30 05:36:34;;;;;;;2.53;1.92;;;;;;;9.32;45.78;99877.50;4418528;32;33828;-62
2023/03/30 05:39:03;;;;;;;5.28;3.15;;;;;;;10.16;45.02;99872.66;4417482;32;33807;-63
2023/03/30 05:41:33;;;;;;;4.55;4.03;;;;;;;10.24;44.27;99862.22;4426369;32;32963;-62
2023/03/30 05:44:00;;;;;;;9.75;4.07;;;;;;;9.90;44.20;99867.31;4417123;32;33813;-62
2023/03/30 05:46:28;;;;;;;2.55;2.15;;;;;;;9.07;46.02;99864.94;4418743;32;33933;-65
2023/03/30 05:48:56;;;;;;;5.57;3.08;;;;;;;10.48;43.99;99863.19;4421409;32;34668;-61
2023/03/30 05:51:24;;;;;;;11.02;4.80;;;;;;;10.70;43.25;99856.28;4418461;32;34881;-62
2023/03/30 05:53:52;;;;;;;10.32;5.05;;;;;;;10.24;43.28;99878.28;4417319;32;33967;-62
2023/03/30 05:56:22;;;;;;;8.65;4.65;;;;;;;10.51;43.38;99875.50;4419596;32;33843;-67
2023/03/30 05:58:50;;;;;;;3.87;2.95;;;;;;;11.22;41.62;99879.16;4418159;32;33227;-64
2023/03/30 06:01:19;;;;;;;3.92;2.67;;;;;;;10.69;42.77;99873.31;4419715;32;32638;-65
2023/03/30 06:03:47;;;;;;;5.12;4.57;;;;;;;11.43;41.56;99874.03;4415627;32;34849;-62
2023/03/30 06:06:15;;;;;;;9.45;3.78;;;;;;;11.61;41.44;99871.75;4416905;32;34016;-63
2023/03/30 06:08:45;;;;;;;7.82;3.62;;;;;;;11.72;41.83;99855.69;4414721;32;33172;-63
2023/03/30 06:11:13;;;;;;;3.03;2.00;;;;;;;11.76;41.64;99859.84;4420064;32;33817;-62
2023/03/30 06:13:41;;;;;;;7.37;4.47;;;;;;;11.66;40.92;99850.81;4419415;32;33798;-61
2023/03/30 06:16:09;;;;;;;4.57;2.72;;;;;;;11.96;40.57;99852.94;4417792;32;35594;-62
2023/03/30 06:18:37;;;;;;;4.68;2.90;;;;;;;11.36;41.34;99851.31;4419044;32;33712;-62
2023/03/30 06:21:07;;;;;;;6.20;2.62;;;;;;;11.19;42.24;99849.94;4421374;32;33850;-63
2023/03/30 06:23:36;;;;;;;8.13;5.80;;;;;;;11.28;41.53;99846.56;4420771;32;33110;-62
2023/03/30 06:26:06;;;;;;;2.20;2.00;;;;;;;10.79;42.63;99844.91;4419822;32;34352;-65
2023/03/30 06:28:34;;;;;;;5.05;2.83;;;;;;;10.68;43.61;99840.31;4418861;32;33380;-63
2023/03/30 06:31:09;;;;;;;19.48;3.37;;;;;;;11.50;41.12;99843.09;4420367;32;32754;-62
2023/03/30 06:33:37;;;;;;;;;;;;;;;11.51;41.05;99838.59;4422538;32;34741;-65
2023/03/30 06:36:12;;;;;;;6.68;3.47;;;;;;;10.88;42.68;99832.63;4422084;32;34667;-61
2023/03/30 06:38:42;;;;;;;1.65;1.55;;;;;;;10.70;43.94;99826.84;4427460;32;33701;-62
2023/03/30 06:41:11;;;;;;;2.37;1.77;;;;;;;10.91;43.72;99830.59;4418365;32;33738;-61
2023/03/30 06:43:40;;;;;;;4.50;3.53;;;;;;;10.59;43.83;99827.59;4421109;32;35664;-61
2023/03/30 06:46:11;;;;;;;6.60;2.05;;;;;;;9.04;47.40;99838.44;4427777;32;35118;-61
2023/03/30 06:48:41;;;;;;;5.40;3.37;;;;;;;8.92;48.02;99828.59;4423682;32;31642;-61
2023/03/30 06:51:13;;;;;;;5.87;4.20;;;;;;;9.36;47.53;99838.09;4421200;32;34593;-62
2023/03/30 06:53:40;;;;;;;5.45;4.22;;;;;;;9.49;47.04;99833.63;4420486;32;33932;-62
2023/03/30 06:56:08;;;;;;;6.35;5.35;;;;;;;10.10;45.33;99830.28;4420192;32;34967;-62
2023/03/30 06:58:37;;;;;;;18.12;3.85;;;;;;;10.32;45.50;99833.16;4418701;32;33618;-61
2023/03/30 07:01:12;;;;;;;6.85;4.15;;;;;;;10.28;45.47;99838.84;4421274;32;33773;-61
2023/03/30 07:03:41;;;;;;;12.43;4.75;;;;;;;9.64;46.78;99846.91;4422259;32;34178;-64
2023/03/30 07:06:09;;;;;;;8.60;6.35;;;;;;;10.09;46.31;99848.16;4421445;32;33921;-62
2023/03/30 07:08:37;;;;;;;7.35;5.03;;;;;;;10.95;44.22;99848.13;4419936;32;33566;-63
2023/03/30 07:11:05;;;;;;;5.37;3.40;;;;;;;10.44;45.77;99860.84;4419338;32;32772;-62
2023/03/30 07:13:34;;;;;;;6.40;3.92;;;;;;;10.48;45.60;99855.16;4419827;32;35340;-63
2023/03/30 07:16:02;;;;;;;4.55;3.28;;;;;;;10.80;45.08;99837.72;4420501;32;36415;-63
2023/03/30 07:18:30;;;;;;;7.18;3.37;;;;;;;10.79;44.70;99830.66;4421807;32;33535;-63
2023/03/30 07:20:58;;;;;;;6.70;5.28;;;;;;;11.26;43.88;99844.97;4419562;32;34724;-63
2023/03/30 07:23:26;;;;;;;6.03;3.97;;;;;;;11.00;44.47;99855.81;4418953;32;31602;-62
2023/03/30 07:25:53;;;;;;;22.62;5.22;;;;;;;11.38;44.09;99852.06;4418039;32;34021;-61
2023/03/30 07:28:21;;;;;;;4.70;3.58;;;;;;;11.11;44.55;99855.87;4418296;32;32943;-62
2023/03/30 07:30:49;;;;;;;12.70;5.32;;;;;;;10.99;44.73;99859.47;4419299;32;33670;-63
2023/03/30 07:33:18;;;;;;;6.25;4.28;;;;;;;11.48;43.76;99845.03;4426510;32;32789;-62
2023/03/30 07:35:46;;;;;;;6.32;3.25;;;;;;;11.17;44.48;99850.06;4419147;32;33890;-62
2023/03/30 07:38:14;;;;;;;5.20;3.33;;;;;;;11.21;44.46;99841.78;4421798;32;33497;-63
2023/03/30 07:40:42;;;;;;;6.22;4.10;;;;;;;10.62;46.16;99835.41;4421976;32;33593;-62
2023/03/30 07:43:10;;;;;;;5.60;3.92;;;;;;;11.42;44.85;99838.31;4420963;32;32752;-62
2023/03/30 07:45:38;;;;;;;7.47;4.95;;;;;;;11.19;45.19;99837.38;4422300;32;33908;-62
2023/03/30 07:48:06;;;;;;;5.53;3.75;;;;;;;11.01;46.01;99840.59;4423816;32;34779;-61
2023/03/30 07:50:34;;;;;;;3.83;2.65;;;;;;;11.34;45.32;99850.59;4422577;32;35704;-61
2023/03/30 07:53:02;;;;;;;22.48;4.87;;;;;;;11.09;45.21;99849.78;4421825;32;32373;-65
2023/03/30 07:55:30;;;;;;;8.15;4.72;;;;;;;11.62;44.09;99860.91;4423424;32;35128;-63
2023/03/30 07:57:58;;;;;;;4.10;3.20;;;;;;;11.81;43.57;99846.06;4426470;32;33420;-62
2023/03/30 08:00:25;;;;;;;4.95;3.65;;;;;;;12.10;43.31;99838.41;4422685;32;33785;-62
2023/03/30 08:02:57;;;;;;;11.70;5.37;;;;;;;12.49;43.09;99829.00;4423102;32;32266;-62
2023/03/30 08:05:24;;;;;;;11.15;5.03;;;;;;;11.88;44.28;99834.78;4417419;32;32333;-62
2023/03/30 08:07:52;;;;;;;7.22;4.12;;;;;;;11.97;44.56;99818.91;4416562;32;33422;-62
2023/03/30 08:10:21;;;;;;;6.10;3.10;;;;;;;12.76;42.96;99830.41;4419565;32;33757;-62
2023/03/30 08:12:48;;;;;;;4.85;2.58;;;;;;;11.77;44.83;99826.69;4420656;32;33752;-62
2023/03/30 08:15:16;;;;;;;5.78;2.72;;;;;;;12.68;43.06;99827.50;4420905;32;33950;-61
2023/03/30 08:17:43;;;;;;;6.32;3.95;;;;;;;13.00;42.55;99830.19;4418835;32;34177;-62
2023/03/30 08:20:11;;;;;;;8.55;5.47;;;;;;;13.08;41.88;99827.72;4417104;32;32532;-62
2023/03/30 08:22:39;;;;;;;8.68;4.80;;;;;;;12.08;44.87;99819.78;4418008;32;34173;-62
2023/03/30 08:25:08;;;;;;;6.32;4.10;;;;;;;13.15;42.01;99818.16;4422356;32;35183;-62
2023/03/30 08:27:35;;;;;;;10.25;3.92;;;;;;;11.99;44.20;99827.72;4420435;32;34419;-62
2023/03/30 08:30:03;;;;;;;12.80;4.45;;;;;;;12.57;43.36;99828.38;4419743;32;35182;-64
2023/03/30 08:32:31;;;;;;;8.27;3.45;;;;;;;12.91;42.25;99828.31;4419561;32;33989;-62
2023/03/30 08:34:59;;;;;;;6.87;3.80;;;;;;;13.13;42.43;99832.72;4419833;32;33980;-64
2023/03/30 08:37:27;;;;;;;5.40;3.83;;;;;;;13.01;42.93;99827.38;4419176;32;33377;-63
2023/03/30 08:39:55;;;;;;;7.50;4.55;;;;;;;13.28;42.08;99826.94;4416898;32;33966;-62
2023/03/30 08:42:51;;;;;;;9.45;5.57;;;;;;;13.09;42.81;99828.56;4424214;32;34047;-63
2023/03/30 08:45:19;;;;;;;11.30;5.50;;;;;;;13.47;42.08;99833.44;4418593;32;34026;-62
2023/03/30 08:47:48;;;;;;;9.88;6.35;;;;;;;14.19;40.46;99822.66;4421839;32;32438;-63
2023/03/30 08:50:20;;;;;;;9.50;5.22;;;;;;;14.30;40.69;99819.00;4420443;32;33848;-64
2023/03/30 08:52:49;;;;;;;12.82;4.82;;;;;;;14.28;40.13;99828.19;4422967;32;35131;-62
2023/03/30 08:55:31;;;;;;;7.50;5.25;;;;;;;14.71;39.58;99819.00;4419977;32;33878;-62
2023/03/30 08:58:17;;;;;;;10.57;4.32;;;;;;;14.52;40.17;99825.19;4418942;32;34693;-63
2023/03/30 09:01:09;;;;;;;12.55;5.15;;;;;;;13.98;41.09;99824.53;4417752;32;33810;-63
2023/03/30 09:03:43;;;;;;;6.97;5.07;;;;;;;13.44;42.65;99812.19;4422622;32;33891;-63
2023/03/30 09:06:30;;;;;;;10.77;5.57;;;;;;;14.14;40.99;99816.81;4428357;32;34648;-62
2023/03/30 09:08:57;;;;;;;16.05;4.57;;;;;;;13.46;42.37;99824.53;4419044;32;34377;-64
2023/03/30 09:11:33;;;;;;;7.57;5.05;;;;;;;14.42;40.98;99809.81;4420546;32;33840;-62
2023/03/30 09:14:05;;;;;;;20.73;6.87;;;;;;;13.81;41.49;99809.87;4419411;32;35037;-63
2023/03/30 09:16:50;;;;;;;16.77;6.62;;;;;;;14.42;41.57;99804.44;4414912;32;33837;-62
2023/03/30 09:19:23;;;;;;;10.05;6.20;;;;;;;14.68;40.78;99807.50;4416561;32;32397;-67
2023/03/30 09:21:52;;;;;;;13.75;5.35;;;;;;;15.02;39.56;99796.28;4428735;32;33791;-62
2023/03/30 09:24:25;;;;;;;10.40;4.47;;;;;;;14.66;40.01;99798.69;4417770;32;33934;-62
2023/03/30 09:27:07;;;;;;;12.63;6.90;;;;;;;15.52;38.74;99787.19;4419755;32;34598;-66
2023/03/30 09:29:46;;;;;;;10.95;5.82;;;;;;;15.72;38.58;99791.56;4421956;32;34732;-62
2023/03/30 09:32:28;;;;;;;10.93;6.85;;;;;;;15.65;38.10;99786.88;4424731;32;33462;-62
2023/03/30 09:35:03;;;;;;;10.65;6.15;;;;;;;14.86;38.63;99787.94;4419486;32;34065;-62
2023/03/30 09:37:31;;;;;;;10.23;5.82;;;;;;;15.10;38.82;99782.13;4418045;32;34368;-65
2023/03/30 09:40:08;;;;;;;9.43;5.20;;;;;;;14.95;38.91;99772.75;4421266;32;32090;-62
2023/03/30 09:42:51;;;;;;;8.65;5.40;;;;;;;14.95;39.07;99768.22;4420310;32;33718;-62
2023/03/30 09:45:22;;;;;;;8.98;5.93;;;;;;;14.42;39.97;99758.66;4419339;32;33987;-62
2023/03/30 09:47:49;;;;;;;8.93;5.47;;;;;;;14.94;39.35;99758.44;4421160;32;33303;-63
2023/03/30 09:50:23;;;;;;;11.15;5.70;;;;;;;14.19;40.53;99749.97;4417618;32;33685;-63
2023/03/30 09:53:06;;;;;;;10.95;5.70;;;;;;;14.02;41.89;99761.38;4415446;32;33714;-62
2023/03/30 09:55:35;;;;;;;7.25;5.18;;;;;;;13.86;42.47;99747.56;4420008;32;32788;-62
2023/03/30 09:58:16;;;;;;;10.68;5.95;;;;;;;13.94;42.73;99761.22;4421233;32;32879;-62
2023/03/30 10:00:44;;;;;;;11.90;5.65;;;;;;;13.32;44.21;99757.63;4411139;32;33724;-62
2023/03/30 10:03:19;;;;;;;8.13;5.28;;;;;;;13.27;44.09;99741.06;4426717;32;33540;-64
2023/03/30 10:06:00;;;;;;;11.18;4.78;;;;;;;14.44;42.03;99736.97;4418289;32;32375;-62
2023/03/30 10:08:28;;;;;;;14.30;7.40;;;;;;;14.95;41.66;99741.28;4420519;32;32528;-63
2023/03/30 10:10:57;;;;;;;9.07;6.18;;;;;;;14.78;41.35;99747.38;4420125;32;33794;-65
2023/03/30 10:13:33;;;;;;;17.95;7.53;;;;;;;15.24;40.70;99735.84;4431337;32;34416;-62
2023/03/30 10:16:07;;;;;;;11.25;7.50;;;;;;;15.35;40.56;99735.69;4413648;32;35367;-65
2023/03/30 10:18:44;;;;;;;15.07;8.05;;;;;;;15.07;41.80;99748.22;4419496;32;33904;-62
2023/03/30 10:21:11;;;;;;;18.62;9.70;;;;;;;15.38;40.60;99739.94;4420106;32;33514;-62
2023/03/30 10:23:41;;;;;;;14.25;6.82;;;;;;;15.57;40.07;99737.19;4418600;32;33877;-63
2023/03/30 10:26:18;;;;;;;11.75;7.75;;;;;;;15.88;39.63;99731.56;4420905;32;33850;-62
2023/03/30 10:28:54;;;;;;;15.60;8.82;;;;;;;15.28;41.08;99720.22;4420006;32;34740;-62
2023/03/30 10:31:22;;;;;;;12.93;7.78;;;;;;;15.81;40.28;99706.16;4419343;32;32363;-62
2023/03/30 10:33:58;;;;;;;10.80;7.37;;;;;;;15.19;41.50;99703.09;4416255;32;34025;-62
2023/03/30 10:36:32;;;;;;;15.32;8.75;;;;;;;15.82;39.87;99697.91;4418045;32;34040;-62
2023/03/30 10:39:13;;;;;;;11.80;7.43;;;;;;;15.77;41.12;99696.69;4422282;32;34084;-64
2023/03/30 10:41:41;;;;;;;18.48;6.65;;;;;;;15.41;40.74;99701.91;4423416;32;34763;-65
2023/03/30 10:44:29;;;;;;;10.48;5.75;;;;;;;14.62;42.76;99694.91;4416796;32;34897;-62
2023/03/30 10:47:28;;;;;;;13.15;7.82;;;;;;;15.86;40.98;99685.00;4417498;32;35097;-62
2023/03/30 10:50:05;;;;;;;12.60;7.90;;;;;;;15.84;40.43;99690.53;4416391;32;35645;-62
2023/03/30 10:52:55;;;;;;;10.38;6.82;;;;;;;16.33;39.78;99697.50;4426764;32;32528;-62
2023/03/30 10:55:30;;;;;;;17.48;7.82;;;;;;;15.40;40.89;99681.31;4417977;32;33579;-63
2023/03/30 10:58:26;;;;;;;9.77;6.30;;;;;;;16.29;39.70;99675.34;4420909;32;33841;-62
2023/03/30 11:01:15;;;;;;;10.25;5.95;;;;;;;16.98;39.02;99662.97;4413326;32;35150;-63
2023/03/30 11:03:46;;;;;;;12.00;6.95;;;;;;;17.40;37.95;99654.97;4413884;32;32622;-63
2023/03/30 11:06:24;;;;;;;12.82;8.55;;;;;;;15.78;40.26;99666.00;4426894;32;33962;-63
2023/03/30 11:08:54;;;;;;;13.80;8.15;;;;;;;15.75;40.69;99672.53;4413875;32;33873;-63
2023/03/30 11:11:31;;;;;;;15.55;8.63;;;;;;;16.19;39.72;99669.16;4417210;32;32313;-63
2023/03/30 11:14:01;;;;;;;12.70;7.30;;;;;;;16.82;39.08;99665.53;4412339;32;33338;-64
2023/03/30 11:16:37;;;;;;;10.88;5.95;;;;;;;16.38;39.76;99669.03;4413026;32;32096;-63
2023/03/30 11:19:15;;;;;;;9.18;5.50;;;;;;;16.62;39.32;99671.09;4416474;32;34041;-64
2023/03/30 11:21:55;;;;;;;10.15;6.03;;;;;;;16.81;39.16;99667.41;4418094;32;34286;-62
2023/03/30 11:24:23;;;;;;;8.15;4.15;;;;;;;16.15;40.99;99665.94;4414484;32;32406;-62
2023/03/30 11:26:54;;;;;;;8.38;5.28;;;;;;;15.79;41.51;99652.38;4419076;32;34947;-64
2023/03/30 11:29:47;;;;;;;12.15;6.15;;;;;;;15.53;41.84;99656.69;4416491;32;32854;-62
2023/03/30 11:32:46;;;;;;;11.18;5.82;;;;;;;15.65;42.48;99644.72;4416094;32;34342;-62
2023/03/30 11:35:23;;;;;;;12.80;7.62;;;;;;;16.52;40.53;99635.22;4413894;32;33687;-61
2023/03/30 11:37:56;;;;;;;7.57;4.28;;;;;;;16.28;40.93;99649.34;4417444;32;33811;-63
2023/03/30 11:40:26;;;;;;;7.68;4.82;;;;;;;17.07;39.86;99628.72;4414268;32;34274;-63
2023/03/30 11:42:54;;;;;;;7.85;4.80;;;;;;;16.72;40.52;99636.72;4409237;32;34300;-63
2023/03/30 11:45:41;;;;;;;8.15;5.15;;;;;;;16.48;40.51;99637.38;4411019;32;32062;-62
2023/03/30 11:48:18;;;;;;;8.27;4.85;;;;;;;17.25;39.65;99640.34;4409387;32;98638;-64
2023/03/30 11:51:12;;;;;;;7.75;4.70;;;;;;;17.09;39.99;99642.94;4413607;32;34045;-62
2023/03/30 11:54:12;;;;;;;8.93;4.87;;;;;;;16.76;40.77;99627.34;4415612;32;33935;-62
2023/03/30 11:56:47;;;;;;;10.48;5.25;;;;;;;15.88;42.58;99620.91;4413370;32;31875;-64